Imlay City, Michigan
Current Conditions -  °F | °C
As of 6:34 PM on Wednesday 22 Oct 2014 (Local Time) from KD95 Reporting Station
Clear Clear  
Wind Chill: 47°   Ceiling: Unl
Heat Index: 47°   Visibility: 10mi
Dew Point: 38°   Wind: 3mph
Humidity: 73%   Direction: 10°N
Pressure: 30.3"   Gusts: NA
Location:  43.02°N, 83.08°W
Report Text: KD95 222234Z AUTO 01003KT 10SM CLR 08/04 A3030 RMK AO2 T00810035
Loading
Personal Weather Stations






























Interactive Weather Map
Tropical Storm Tracking
New forecast layout! Learn more

10-Day Weather Forecast

Advertisements
Track Severe Weather on mobile